Time;durP1;ratioP1;P1;durP2;ratioP2;P2;SDS_P1;SDS_P2;PMS_P1;PMS_P2;Temp;Humidity;BMP_temperature;BMP_pressure;BME280_temperature;BME280_humidity;BME280_pressure;Samples;Min_cycle;Max_cycle;Signal;HPM_P1;HPM_P2
2021/10/22 00:00:35;;;;;;;9.43;1.33;;;;;;;9.16;63.69;101486.81;5014715;28;20458;-70
2021/10/22 00:03:00;;;;;;;9.05;1.30;;;;;;;9.15;64.20;101493.78;5015107;28;20113;-70
2021/10/22 00:05:25;;;;;;;9.80;1.58;;;;;;;9.15;63.30;101479.75;5015362;28;20030;-69
2021/10/22 00:07:50;;;;;;;8.57;1.77;;;;;;;9.10;63.62;101483.13;5015192;28;20034;-69
2021/10/22 00:10:16;;;;;;;20.05;1.98;;;;;;;9.08;63.77;101487.44;5015095;28;20129;-69
2021/10/22 00:12:41;;;;;;;8.73;1.20;;;;;;;9.10;63.61;101483.13;5015331;28;20022;-70
2021/10/22 00:15:09;;;;;;;8.10;1.50;;;;;;;9.06;63.85;101491.75;5015123;28;20029;-70
2021/10/22 00:17:36;;;;;;;5.78;1.38;;;;;;;9.04;63.95;101482.91;5015228;28;20048;-69
2021/10/22 00:20:02;;;;;;;7.15;1.25;;;;;;;9.02;64.46;101497.75;5015158;28;20049;-71
2021/10/22 00:22:27;;;;;;;15.63;1.45;;;;;;;8.97;64.47;101494.06;5014948;28;20042;-70
2021/10/22 00:24:53;;;;;;;12.98;1.52;;;;;;;8.94;65.02;101492.22;5014798;28;20069;-71
2021/10/22 00:27:18;;;;;;;4.95;1.15;;;;;;;8.89;65.53;101501.66;5015015;28;20036;-69
2021/10/22 00:29:43;;;;;;;6.90;1.20;;;;;;;8.89;65.36;101493.78;5014836;28;20018;-71
2021/10/22 00:32:09;;;;;;;6.15;1.65;;;;;;;8.88;65.37;101484.13;5014823;28;20138;-70
2021/10/22 00:34:34;;;;;;;6.72;1.35;;;;;;;8.93;65.33;101489.56;5013526;28;20026;-70
2021/10/22 00:37:01;;;;;;;10.40;1.50;;;;;;;8.90;65.12;101487.72;5013317;28;20509;-70
2021/10/22 00:39:26;;;;;;;14.93;2.33;;;;;;;8.88;65.38;101485.88;5014797;28;20113;-70
2021/10/22 00:41:52;;;;;;;13.70;1.45;;;;;;;8.84;65.96;101478.75;5014723;28;20090;-70
2021/10/22 00:44:18;;;;;;;7.88;1.92;;;;;;;8.82;64.42;101486.56;5014676;28;20026;-70
2021/10/22 00:46:43;;;;;;;5.78;1.40;;;;;;;8.81;64.88;101484.78;5014835;28;20036;-71
2021/10/22 00:49:11;;;;;;;10.32;1.27;;;;;;;8.77;64.99;101482.88;5014697;28;20022;-70
2021/10/22 00:51:37;;;;;;;10.35;1.73;;;;;;;8.80;64.55;101479.47;5014465;28;20053;-69
2021/10/22 00:54:05;;;;;;;9.00;1.45;;;;;;;8.78;64.41;101475.06;5028538;28;20033;-70
2021/10/22 00:56:31;;;;;;;6.25;1.55;;;;;;;8.82;64.31;101480.41;5034290;28;20029;-69
2021/10/22 00:58:57;;;;;;;3.50;1.10;;;;;;;8.86;63.40;101482.31;5034341;28;20031;-70
2021/10/22 01:01:22;;;;;;;7.97;1.65;;;;;;;8.91;64.34;101481.63;5034384;28;20466;-70
2021/10/22 01:03:48;;;;;;;13.13;1.30;;;;;;;8.96;63.50;101488.75;5032865;28;20116;-69
2021/10/22 01:06:13;;;;;;;7.03;1.60;;;;;;;9.04;63.38;101477.66;5034320;28;20029;-70
2021/10/22 01:08:39;;;;;;;10.95;1.50;;;;;;;9.05;63.69;101473.31;5034101;28;20037;-70
2021/10/22 01:11:04;;;;;;;8.10;1.60;;;;;;;9.09;63.76;101476.09;5033978;28;20025;-70
2021/10/22 01:13:30;;;;;;;10.23;1.92;;;;;;;9.10;64.76;101480.50;5033441;28;20036;-70
2021/10/22 01:15:57;;;;;;;8.00;1.50;;;;;;;9.18;64.02;101479.84;5033743;28;20485;-71
2021/10/22 01:18:25;;;;;;;6.25;1.60;;;;;;;9.17;64.07;101470.19;5033823;28;20025;-70
2021/10/22 01:21:01;;;;;;;7.75;1.30;;;;;;;9.26;63.20;101467.88;5033611;28;20044;-70
2021/10/22 01:23:30;;;;;;;16.05;1.88;;;;;;;9.27;63.44;101472.28;5032782;28;20052;-70
2021/10/22 01:25:55;;;;;;;7.93;1.75;;;;;;;9.34;63.46;101460.22;5033413;28;20068;-70
2021/10/22 01:28:21;;;;;;;14.70;2.28;;;;;;;9.31;64.49;101457.53;5033614;28;20516;-70
2021/10/22 01:30:48;;;;;;;9.20;2.13;;;;;;;9.41;63.64;101462.19;5033579;28;20022;-70
2021/10/22 01:33:18;;;;;;;11.98;2.13;;;;;;;9.44;64.26;101457.94;5033572;28;20025;-72
2021/10/22 01:35:47;;;;;;;13.73;2.33;;;;;;;9.44;64.69;101452.69;5033615;28;20021;-71
2021/10/22 01:38:21;;;;;;;12.57;2.25;;;;;;;9.42;65.36;101462.25;5033340;28;20041;-71
2021/10/22 01:40:49;;;;;;;11.90;2.47;;;;;;;9.42;65.93;101458.75;5032207;28;20044;-69
2021/10/22 01:43:15;;;;;;;11.43;1.65;;;;;;;9.41;66.28;101449.97;5033419;28;20480;-70
2021/10/22 01:45:41;;;;;;;11.35;1.80;;;;;;;9.43;66.26;101450.03;5033250;28;20032;-70
2021/10/22 01:48:07;;;;;;;7.72;1.30;;;;;;;9.47;66.71;101451.00;5033243;28;20469;-70
2021/10/22 01:50:32;;;;;;;12.98;1.92;;;;;;;9.47;67.45;101451.00;5033292;28;20025;-70
2021/10/22 01:52:57;;;;;;;11.93;2.22;;;;;;;9.50;67.66;101449.34;5028048;28;20099;-70
2021/10/22 01:55:23;;;;;;;11.02;1.80;;;;;;;9.49;68.20;101450.19;5012423;28;20040;-70
2021/10/22 01:57:49;;;;;;;13.52;1.92;;;;;;;9.49;68.62;101449.31;5012272;28;20026;-70
2021/10/22 02:00:14;;;;;;;12.68;2.15;;;;;;;9.46;69.18;101452.75;5013576;28;20032;-70
2021/10/22 02:02:40;;;;;;;11.70;2.30;;;;;;;9.45;69.22;101456.19;5013328;28;20554;-70
2021/10/22 02:05:06;;;;;;;11.02;2.17;;;;;;;9.48;69.89;101458.03;5013431;28;20444;-71
2021/10/22 02:07:31;;;;;;;13.07;1.85;;;;;;;9.52;69.90;101454.66;5013953;28;20096;-70
2021/10/22 02:09:57;;;;;;;12.30;1.90;;;;;;;9.53;70.25;101462.56;5013605;28;20046;-70
2021/10/22 02:12:22;;;;;;;12.57;1.90;;;;;;;9.60;70.29;101448.81;5012445;28;20121;-70
2021/10/22 02:14:48;;;;;;;12.88;1.95;;;;;;;9.64;70.39;101455.03;5012051;28;20030;-70
2021/10/22 02:17:13;;;;;;;15.27;2.08;;;;;;;9.71;69.98;101441.25;5011988;28;20470;-71
2021/10/22 02:19:39;;;;;;;12.52;2.05;;;;;;;9.70;70.74;101444.72;5011840;28;20126;-70
2021/10/22 02:22:04;;;;;;;12.15;1.92;;;;;;;9.72;69.47;101445.63;5013314;28;20452;-70
2021/10/22 02:24:29;;;;;;;13.85;2.17;;;;;;;9.72;69.36;101437.75;5014127;28;20052;-69
2021/10/22 02:26:55;;;;;;;9.57;1.67;;;;;;;9.72;69.92;101437.75;5016261;28;20041;-70
2021/10/22 02:29:20;;;;;;;7.63;1.42;;;;;;;9.74;69.89;101441.31;5017506;28;20022;-70
2021/10/22 02:31:46;;;;;;;10.90;1.73;;;;;;;9.76;70.46;101439.63;5017117;28;20022;-70
2021/10/22 02:34:12;;;;;;;14.25;2.22;;;;;;;9.78;71.05;101437.94;5017686;28;20022;-70
2021/10/22 02:36:37;;;;;;;12.38;1.38;;;;;;;9.76;71.30;101444.88;5016884;28;20355;-70
2021/10/22 02:39:03;;;;;;;7.95;1.40;;;;;;;9.81;71.83;101445.03;5017257;28;20062;-70
2021/10/22 02:41:29;;;;;;;12.32;1.85;;;;;;;9.79;71.47;101447.63;5017149;28;20034;-70
2021/10/22 02:43:54;;;;;;;14.70;1.80;;;;;;;9.81;72.05;101437.16;5017088;28;20029;-70
2021/10/22 02:46:19;;;;;;;11.02;1.88;;;;;;;9.81;72.54;101436.22;5017066;28;20029;-70
2021/10/22 02:48:45;;;;;;;11.30;1.85;;;;;;;9.80;72.85;101432.72;5017171;28;20502;-71
2021/10/22 02:51:10;;;;;;;10.60;1.77;;;;;;;9.77;73.78;101428.25;5017047;28;20088;-70
2021/10/22 02:53:36;;;;;;;8.95;1.65;;;;;;;9.84;73.55;101433.72;5027035;28;20076;-70
2021/10/22 02:56:01;;;;;;;10.13;1.55;;;;;;;9.84;74.55;101424.09;5036584;28;20478;-70
2021/10/22 02:58:27;;;;;;;11.27;2.78;;;;;;;9.81;74.43;101421.38;5036486;28;20032;-69
2021/10/22 03:00:52;;;;;;;19.38;2.00;;;;;;;9.84;74.86;101431.09;5036398;28;20025;-69
2021/10/22 03:03:17;;;;;;;11.35;1.63;;;;;;;9.87;74.05;101431.16;5035905;28;20504;-69
2021/10/22 03:05:43;;;;;;;8.68;1.67;;;;;;;9.91;73.89;101443.56;5036528;28;20030;-69
2021/10/22 03:08:09;;;;;;;8.63;2.97;;;;;;;9.95;73.80;101434.91;5036324;28;20045;-70
2021/10/22 03:10:34;;;;;;;12.20;1.60;;;;;;;9.94;73.88;101427.84;5034968;28;20432;-68
2021/10/22 03:13:01;;;;;;;14.20;1.27;;;;;;;9.96;73.72;101427.06;5036143;28;20032;-70
2021/10/22 03:15:26;;;;;;;11.82;1.52;;;;;;;10.00;73.61;101435.03;5036142;28;20028;-70
2021/10/22 03:17:52;;;;;;;13.88;1.85;;;;;;;10.06;73.49;101422.06;5036229;28;20022;-70
2021/10/22 03:20:17;;;;;;;13.60;1.40;;;;;;;10.04;74.14;101436.94;5036251;28;20021;-70
2021/10/22 03:22:43;;;;;;;12.15;1.63;;;;;;;10.05;73.95;101425.53;5035019;28;20056;-70
2021/10/22 03:25:08;;;;;;;8.35;1.30;;;;;;;10.07;73.78;101419.47;5034869;28;20085;-69
2021/10/22 03:27:34;;;;;;;8.20;1.02;;;;;;;10.08;74.23;101418.63;5036030;28;20017;-69
2021/10/22 03:30:00;;;;;;;10.95;1.90;;;;;;;10.12;74.25;101422.25;5035987;28;20462;-71
2021/10/22 03:32:26;;;;;;;9.63;1.65;;;;;;;10.09;74.57;101423.06;5035949;28;20030;-69
2021/10/22 03:34:52;;;;;;;10.93;1.77;;;;;;;10.11;74.04;101413.44;5035596;28;20041;-70
2021/10/22 03:37:17;;;;;;;11.50;1.70;;;;;;;10.20;72.68;101419.81;5035528;28;20084;-70
2021/10/22 03:39:42;;;;;;;9.07;1.73;;;;;;;10.25;73.31;101413.81;5035727;28;20488;-70
2021/10/22 03:42:08;;;;;;;10.45;1.77;;;;;;;10.23;72.83;101409.41;5035774;28;20025;-70
2021/10/22 03:44:34;;;;;;;9.43;1.90;;;;;;;10.28;73.22;101410.38;5035587;28;20397;-71
2021/10/22 03:47:00;;;;;;;7.07;1.35;;;;;;;10.31;72.85;101407.84;5035543;28;20033;-70
2021/10/22 03:49:25;;;;;;;10.90;1.63;;;;;;;10.31;73.49;101402.59;5035406;28;20042;-70
2021/10/22 03:51:51;;;;;;;12.00;1.90;;;;;;;10.28;73.41;101406.03;5035391;28;20028;-70
2021/10/22 03:54:16;;;;;;;16.23;1.70;;;;;;;10.28;73.37;101413.00;5019401;28;20122;-70
2021/10/22 03:56:41;;;;;;;10.70;1.50;;;;;;;10.31;73.43;101423.63;5014330;28;20030;-71
2021/10/22 03:59:06;;;;;;;8.55;1.52;;;;;;;10.30;73.53;101406.06;5015691;28;20033;-71
2021/10/22 04:01:32;;;;;;;12.65;1.75;;;;;;;10.34;73.46;101413.19;5014190;28;20120;-68
2021/10/22 04:03:57;;;;;;;7.25;1.55;;;;;;;10.37;73.49;101423.81;5014094;28;20129;-69
2021/10/22 04:06:23;;;;;;;9.25;1.67;;;;;;;10.40;74.02;101429.16;5014064;28;20049;-69
2021/10/22 04:08:48;;;;;;;12.75;1.92;;;;;;;10.39;74.27;101434.38;5015338;28;20466;-71
2021/10/22 04:11:14;;;;;;;15.90;2.50;;;;;;;10.38;74.80;101446.66;5014103;28;20025;-69
2021/10/22 04:13:39;;;;;;;12.07;1.50;;;;;;;10.36;73.57;101437.81;5013842;28;20029;-70
2021/10/22 04:16:05;;;;;;;13.07;2.20;;;;;;;10.40;73.69;101444.94;5015135;28;20065;-70
2021/10/22 04:18:30;;;;;;;14.32;1.88;;;;;;;10.42;73.86;101442.38;5015130;28;20076;-70
2021/10/22 04:20:55;;;;;;;12.95;1.70;;;;;;;10.40;73.14;101458.09;5015282;28;20371;-70
2021/10/22 04:23:21;;;;;;;11.15;1.60;;;;;;;10.37;69.87;101449.25;5015040;28;20084;-69
2021/10/22 04:25:49;;;;;;;11.43;1.48;;;;;;;10.32;70.19;101441.19;5014755;28;20107;-70
2021/10/22 04:28:14;;;;;;;9.00;1.45;;;;;;;10.29;69.50;101446.38;4997762;28;20033;-71
2021/10/22 04:30:40;;;;;;;6.82;1.38;;;;;;;10.28;69.03;101455.09;5015124;28;20018;-70
2021/10/22 04:33:06;;;;;;;8.77;1.35;;;;;;;10.25;69.65;101452.41;5013602;28;20474;-68
2021/10/22 04:35:31;;;;;;;7.57;1.25;;;;;;;10.26;69.10;101451.56;5014672;28;20029;-69
2021/10/22 04:40:31;;;;;;;9.55;2.03;;;;;;;10.24;68.94;101458.50;5014821;28;20044;-70
2021/10/22 04:43:02;;;;;;;9.82;2.00;;;;;;;10.22;69.67;101455.81;5014743;28;20382;-69
2021/10/22 04:45:30;;;;;;;11.20;1.23;;;;;;;10.25;70.08;101461.16;5014673;28;20022;-70
2021/10/22 04:47:56;;;;;;;7.20;1.27;;;;;;;10.27;69.78;101458.59;5014023;28;20038;-69
2021/10/22 04:50:22;;;;;;;10.85;1.73;;;;;;;10.32;69.87;101451.69;5013491;28;20119;-70
2021/10/22 04:52:53;;;;;;;9.43;1.25;;;;;;;10.31;69.56;101449.94;5018531;28;20103;-70
2021/10/22 04:55:20;;;;;;;14.43;1.63;;;;;;;10.34;69.19;101446.50;5034276;28;20025;-70
2021/10/22 04:57:45;;;;;;;4.63;1.13;;;;;;;10.36;69.90;101439.56;5032899;28;20036;-69
2021/10/22 05:00:11;;;;;;;3.88;1.40;;;;;;;10.37;69.97;101438.72;5034111;28;20457;-69
2021/10/22 05:02:36;;;;;;;5.57;1.20;;;;;;;10.35;71.21;101443.94;5034092;28;20048;-69
2021/10/22 05:05:02;;;;;;;10.40;2.03;;;;;;;10.32;71.87;101433.28;5034108;28;20025;-70
2021/10/22 05:07:28;;;;;;;8.98;1.80;;;;;;;10.28;72.10;101426.16;5034162;28;20021;-69
2021/10/22 05:09:53;;;;;;;8.27;1.40;;;;;;;10.24;73.64;101413.78;5033978;28;20032;-70
2021/10/22 05:12:18;;;;;;;9.07;1.45;;;;;;;10.23;73.38;101430.44;5034001;28;20470;-69
2021/10/22 05:14:44;;;;;;;8.18;1.70;;;;;;;10.10;77.38;101451.09;5033961;28;20029;-69
2021/10/22 05:17:09;;;;;;;5.88;1.30;;;;;;;9.77;79.79;101440.53;5033767;28;20122;-71
2021/10/22 05:19:34;;;;;;;5.88;1.20;;;;;;;9.53;82.26;101445.94;5033766;28;20017;-70
2021/10/22 05:22:00;;;;;;;11.20;1.88;;;;;;;9.33;84.20;101448.81;5033775;28;20429;-70
2021/10/22 05:24:25;;;;;;;10.23;1.90;;;;;;;9.25;84.02;101455.56;5033775;28;20029;-71
2021/10/22 05:26:51;;;;;;;7.22;1.40;;;;;;;9.18;83.44;101433.47;5033539;28;20042;-69
2021/10/22 05:29:17;;;;;;;14.77;2.10;;;;;;;9.13;84.19;101429.84;5033734;28;20382;-70
2021/10/22 05:31:42;;;;;;;8.07;1.75;;;;;;;9.09;83.43;101418.34;5033594;28;20068;-67
2021/10/22 05:34:08;;;;;;;7.70;1.20;;;;;;;9.07;80.66;101412.13;5033695;28;20458;-69
2021/10/22 05:36:34;;;;;;;10.75;2.63;;;;;;;9.13;77.50;101395.69;5033734;28;20029;-69
2021/10/22 05:38:59;;;;;;;9.77;1.30;;;;;;;9.25;75.40;101396.06;5033557;28;20036;-69
2021/10/22 05:41:25;;;;;;;12.88;1.40;;;;;;;9.32;74.53;101399.78;5032000;28;20026;-69
2021/10/22 05:43:50;;;;;;;6.38;1.40;;;;;;;9.52;73.06;101396.84;5033430;28;20449;-71
2021/10/22 05:46:19;;;;;;;10.40;1.60;;;;;;;9.68;71.25;101399.09;5033502;28;20021;-69
2021/10/22 05:48:45;;;;;;;9.55;1.35;;;;;;;9.75;71.39;101390.56;5033454;28;20029;-69
2021/10/22 05:51:12;;;;;;;15.10;1.90;;;;;;;9.82;71.94;101394.25;5031960;28;20040;-70
2021/10/22 05:53:37;;;;;;;8.65;1.35;;;;;;;9.92;71.50;101392.75;5022835;28;20024;-69
2021/10/22 05:56:03;;;;;;;7.15;1.38;;;;;;;9.99;70.92;101386.81;5013400;28;20030;-71
2021/10/22 05:58:28;;;;;;;6.95;1.25;;;;;;;10.04;69.55;101382.59;5013389;28;20030;-69
2021/10/22 06:00:53;;;;;;;7.85;2.00;;;;;;;10.05;70.62;101380.84;5012174;28;20120;-70
2021/10/22 06:03:19;;;;;;;11.60;2.05;;;;;;;10.05;71.22;101378.19;5013396;28;20103;-69
2021/10/22 06:05:51;;;;;;;9.80;1.67;;;;;;;10.00;71.44;101392.97;5013325;28;20107;-71
2021/10/22 06:08:17;;;;;;;9.35;1.52;;;;;;;9.94;71.60;101385.78;5013415;28;20033;-70
2021/10/22 06:10:42;;;;;;;9.77;1.50;;;;;;;9.91;70.33;101388.34;5012112;28;20466;-70
2021/10/22 06:13:07;;;;;;;15.80;2.28;;;;;;;9.88;70.42;101396.16;5013507;28;20037;-70
2021/10/22 06:15:33;;;;;;;13.40;1.48;;;;;;;9.83;70.12;101398.63;5013322;28;20029;-68
2021/10/22 06:17:59;;;;;;;7.80;2.35;;;;;;;9.83;70.08;101395.13;5013363;28;20065;-69
2021/10/22 06:25:37;;;;;;;12.38;2.17;;;;;;;9.95;68.80;101384.97;5013480;28;20512;-70
2021/10/22 06:28:03;;;;;;;13.40;2.20;;;;;;;10.02;68.69;101397.41;5013437;28;20021;-69
2021/10/22 06:30:28;;;;;;;11.43;2.13;;;;;;;10.06;69.03;101396.66;5013388;28;20026;-69
2021/10/22 06:32:54;;;;;;;9.60;1.40;;;;;;;10.03;67.63;101409.72;5013439;28;20030;-69
2021/10/22 06:35:19;;;;;;;7.13;1.50;;;;;;;10.06;68.17;101391.38;5013299;28;20383;-69
2021/10/22 06:37:44;;;;;;;13.68;1.75;;;;;;;10.08;68.55;101394.09;5011881;28;20033;-69
2021/10/22 06:40:10;;;;;;;11.20;1.63;;;;;;;10.09;69.36;101402.00;5012155;28;20033;-70
2021/10/22 06:42:35;;;;;;;11.32;1.90;;;;;;;10.10;68.43;101390.63;5013420;28;20025;-69
2021/10/22 06:45:01;;;;;;;11.15;1.67;;;;;;;10.07;69.02;101395.81;5013346;28;20076;-70
2021/10/22 06:47:26;;;;;;;13.68;1.75;;;;;;;10.07;69.28;101403.69;5013072;28;20029;-70
2021/10/22 06:49:52;;;;;;;9.32;1.52;;;;;;;10.05;70.17;101405.41;5013073;28;20044;-70
2021/10/22 06:52:17;;;;;;;8.90;1.48;;;;;;;10.03;71.26;101407.09;5012002;28;20501;-70
2021/10/22 06:54:42;;;;;;;16.00;2.10;;;;;;;10.00;70.55;101414.91;5032312;28;20053;-69
2021/10/22 06:57:08;;;;;;;7.97;2.08;;;;;;;10.01;69.83;101411.44;5031512;28;20132;-70
2021/10/22 06:59:33;;;;;;;8.10;1.63;;;;;;;10.02;69.45;101415.81;5032951;28;20033;-70
2021/10/22 07:01:58;;;;;;;8.25;1.63;;;;;;;10.04;69.50;101413.25;5031704;28;20032;-69
2021/10/22 07:04:23;;;;;;;14.07;2.03;;;;;;;10.06;68.87;101412.44;5032859;28;20113;-70
2021/10/22 07:09:32;;;;;;;11.32;1.85;;;;;;;10.21;67.68;101421.59;5032939;28;20381;-70
2021/10/22 07:11:58;;;;;;;13.75;2.08;;;;;;;10.31;67.21;101410.50;5034628;28;20022;-69
2021/10/22 07:14:25;;;;;;;10.10;1.50;;;;;;;10.38;67.92;101416.84;5036421;28;20516;-70
2021/10/22 07:16:50;;;;;;;14.93;2.42;;;;;;;10.45;68.19;101424.91;5036228;28;20029;-69
2021/10/22 07:19:15;;;;;;;8.48;1.45;;;;;;;10.50;68.32;101414.53;5036062;28;20037;-70
2021/10/22 07:21:47;;;;;;;8.25;1.83;;;;;;;10.53;69.23;101426.88;5036053;28;20164;-69
2021/10/22 07:24:18;;;;;;;13.63;1.83;;;;;;;10.53;69.67;101429.50;5036197;28;20033;-68
2021/10/22 07:26:43;;;;;;;11.38;2.10;;;;;;;10.51;69.81;101436.47;5035768;28;20061;-69
2021/10/22 07:29:09;;;;;;;16.05;2.13;;;;;;;10.50;70.50;101443.47;5034465;28;20499;-69
2021/10/22 07:31:36;;;;;;;13.45;2.33;;;;;;;10.53;70.44;101437.41;5034544;28;20076;-70
2021/10/22 07:34:01;;;;;;;10.45;1.90;;;;;;;10.58;70.39;101439.31;5034846;28;20053;-69
2021/10/22 07:36:26;;;;;;;11.57;1.70;;;;;;;10.60;70.82;101449.84;5034545;28;20397;-69
2021/10/22 07:38:52;;;;;;;15.02;1.80;;;;;;;10.61;71.20;101446.38;5035901;28;20029;-69
2021/10/22 07:41:17;;;;;;;13.57;2.50;;;;;;;10.66;71.09;101455.25;5035588;28;20033;-68
2021/10/22 07:43:44;;;;;;;18.95;2.10;;;;;;;10.71;70.89;101458.03;5035582;28;20033;-70
2021/10/22 07:46:09;;;;;;;10.40;1.88;;;;;;;10.72;70.77;101458.06;5035484;28;20139;-69
2021/10/22 07:48:35;;;;;;;13.23;2.05;;;;;;;10.80;69.77;101456.53;5034267;28;20112;-69
2021/10/22 07:51:01;;;;;;;15.10;2.17;;;;;;;10.83;70.15;101454.84;5035572;28;20041;-69
2021/10/22 07:53:26;;;;;;;15.15;3.00;;;;;;;10.78;70.81;101452.97;5026595;28;20022;-69
2021/10/22 07:55:51;;;;;;;13.55;1.90;;;;;;;10.81;70.43;101467.94;5015727;28;20335;-69
2021/10/22 07:58:17;;;;;;;12.57;2.03;;;;;;;10.80;70.81;101467.06;5015534;28;20026;-70
2021/10/22 08:00:43;;;;;;;12.68;1.83;;;;;;;10.83;70.96;101463.63;5015398;28;20091;-71
2021/10/22 08:03:08;;;;;;;12.55;1.83;;;;;;;10.86;70.60;101474.22;5015318;28;20033;-69
2021/10/22 08:05:34;;;;;;;22.75;2.72;;;;;;;10.88;70.28;101464.63;5015434;28;20516;-72
2021/10/22 08:08:00;;;;;;;14.38;2.17;;;;;;;10.95;70.12;101470.94;5015397;28;20419;-69
2021/10/22 08:10:25;;;;;;;9.88;2.10;;;;;;;11.01;70.13;101457.91;5015264;28;20399;-69
2021/10/22 08:12:52;;;;;;;10.98;1.80;;;;;;;11.10;69.23;101466.03;5013949;28;20079;-69
2021/10/22 08:15:17;;;;;;;13.15;1.73;;;;;;;11.18;68.96;101479.41;5015110;28;20033;-69
2021/10/22 08:17:42;;;;;;;12.32;1.80;;;;;;;11.22;68.55;101490.91;5015114;28;20034;-69
2021/10/22 08:20:11;;;;;;;19.20;2.42;;;;;;;11.27;68.76;101470.81;5013787;28;20120;-69
2021/10/22 08:22:37;;;;;;;13.52;2.50;;;;;;;11.24;68.62;101478.66;5013071;28;20044;-70
2021/10/22 08:25:11;;;;;;;13.00;2.35;;;;;;;11.27;68.81;101474.38;5014790;28;20512;-69
2021/10/22 08:27:40;;;;;;;15.93;1.83;;;;;;;11.33;68.69;101468.34;5014958;28;20033;-69
2021/10/22 08:30:08;;;;;;;12.48;2.03;;;;;;;11.32;68.68;101470.94;5013606;28;20037;-70
2021/10/22 08:32:34;;;;;;;14.25;1.95;;;;;;;11.33;69.31;101476.25;5014866;28;20033;-70
2021/10/22 08:35:02;;;;;;;16.48;2.17;;;;;;;11.31;69.68;101493.75;5014869;28;20442;-69
2021/10/22 08:37:27;;;;;;;15.52;1.95;;;;;;;11.32;70.18;101508.72;5014658;28;20030;-72
2021/10/22 08:39:54;;;;;;;12.43;2.05;;;;;;;11.33;68.76;101494.69;5014705;28;20041;-69
2021/10/22 08:42:21;;;;;;;8.48;1.60;;;;;;;11.31;69.80;101504.28;5013243;28;20046;-69
2021/10/22 08:44:47;;;;;;;12.43;1.73;;;;;;;11.27;69.21;101500.72;5013449;28;20026;-70
2021/10/22 08:47:12;;;;;;;13.57;1.70;;;;;;;11.29;69.07;101504.25;5014521;28;20033;-69
2021/10/22 08:49:38;;;;;;;10.73;1.48;;;;;;;11.27;69.35;101495.44;5013478;28;20501;-69
2021/10/22 08:52:05;;;;;;;16.48;2.35;;;;;;;11.27;69.59;101505.06;5014597;28;20041;-69
2021/10/22 08:54:40;;;;;;;8.23;1.85;;;;;;;11.25;70.14;101507.66;5032165;28;20037;-70
2021/10/22 08:57:07;;;;;;;11.40;1.63;;;;;;;11.27;70.55;101512.97;5034412;28;20077;-70
2021/10/22 08:59:33;;;;;;;12.55;2.33;;;;;;;11.34;70.56;101506.09;5032975;28;20029;-70
2021/10/22 09:02:20;;;;;;;9.32;2.10;;;;;;;11.52;71.10;101524.13;5034343;28;20065;-68
2021/10/22 09:04:47;;;;;;;15.32;1.80;;;;;;;11.56;70.87;101518.06;5033026;28;20033;-71
2021/10/22 09:07:20;;;;;;;17.10;2.42;;;;;;;11.91;70.11;101523.22;5034031;28;20083;-70
2021/10/22 09:09:47;;;;;;;8.98;1.88;;;;;;;11.90;70.13;101524.97;5032758;28;20033;-69
2021/10/22 09:12:13;;;;;;;14.95;2.63;;;;;;;11.85;70.57;101523.09;5034089;28;20026;-70
2021/10/22 09:14:59;;;;;;;18.75;2.22;;;;;;;11.92;70.17;101511.81;5032545;28;20044;-69
2021/10/22 09:17:36;;;;;;;16.75;1.92;;;;;;;12.19;69.47;101516.81;5033859;28;20048;-70
2021/10/22 09:20:02;;;;;;;13.00;2.00;;;;;;;12.21;70.05;101519.50;5032462;28;20400;-69
2021/10/22 09:22:30;;;;;;;15.88;2.10;;;;;;;12.02;70.41;101529.69;5033762;28;20029;-70
2021/10/22 09:25:17;;;;;;;10.07;1.63;;;;;;;11.84;71.37;101529.22;5033468;28;20116;-70
2021/10/22 09:27:48;;;;;;;16.73;2.42;;;;;;;11.71;72.47;101539.50;5033644;28;20100;-69
2021/10/22 09:30:45;;;;;;;10.98;1.60;;;;;;;11.63;73.29;101546.34;5033848;28;20382;-69
2021/10/22 09:33:10;;;;;;;11.88;2.25;;;;;;;11.56;73.34;101541.78;5033462;28;20013;-70
2021/10/22 09:35:44;;;;;;;11.32;1.67;;;;;;;11.61;72.56;101553.31;5033607;28;20044;-70
2021/10/22 09:38:21;;;;;;;12.55;1.73;;;;;;;11.60;73.56;101559.47;5033524;28;20431;-70
2021/10/22 09:40:53;;;;;;;12.40;2.25;;;;;;;11.73;73.19;101579.97;5033447;28;20116;-69
2021/10/22 09:43:24;;;;;;;15.35;2.15;;;;;;;11.76;72.52;101566.88;5033307;28;20025;-69
2021/10/22 09:45:52;;;;;;;14.10;2.35;;;;;;;11.92;71.66;101569.84;5033295;28;20056;-70
2021/10/22 09:48:29;;;;;;;11.98;1.98;;;;;;;12.09;71.35;101570.28;5033404;28;20025;-69
2021/10/22 09:51:14;;;;;;;8.52;1.98;;;;;;;12.03;72.39;101573.69;5033232;28;20401;-69
2021/10/22 09:53:41;;;;;;;12.85;2.15;;;;;;;11.88;72.74;101568.00;5022383;28;20037;-69
2021/10/22 09:56:08;;;;;;;13.65;1.85;;;;;;;11.73;73.64;101566.78;5012234;28;20060;-69
2021/10/22 09:58:35;;;;;;;11.23;2.03;;;;;;;11.69;72.38;101570.19;5013319;28;20474;-69
2021/10/22 10:01:11;;;;;;;20.35;3.65;;;;;;;11.98;72.44;101585.88;5013596;28;20033;-69
2021/10/22 10:03:41;;;;;;;18.55;2.50;;;;;;;11.95;73.74;101572.59;5013478;28;20030;-70
2021/10/22 10:06:07;;;;;;;14.00;1.98;;;;;;;11.80;74.28;101584.53;5013314;28;20045;-70
2021/10/22 10:08:35;;;;;;;13.25;2.40;;;;;;;11.61;75.02;101595.50;5013396;28;20095;-68
2021/10/22 10:11:01;;;;;;;16.15;2.47;;;;;;;11.64;75.44;101606.13;5013446;28;20030;-69
2021/10/22 10:13:29;;;;;;;13.93;1.98;;;;;;;11.69;74.84;101591.28;5013220;28;20489;-69
2021/10/22 10:15:57;;;;;;;13.52;2.28;;;;;;;11.66;75.24;101585.06;5013514;28;20033;-70
2021/10/22 10:18:25;;;;;;;12.95;1.92;;;;;;;11.62;74.74;101589.38;5013046;28;20026;-70
2021/10/22 10:20:50;;;;;;;17.42;1.70;;;;;;;11.50;75.99;101599.63;5013103;28;20045;-69
2021/10/22 10:23:20;;;;;;;21.80;3.38;;;;;;;11.33;78.65;101612.34;5013390;28;20030;-69
2021/10/22 10:25:46;;;;;;;13.57;2.22;;;;;;;11.02;83.81;101625.63;5013126;28;20470;-69
2021/10/22 10:28:12;;;;;;;11.32;2.28;;;;;;;10.84;84.18;101633.00;5013043;28;20065;-68
2021/10/22 10:30:42;;;;;;;13.18;2.45;;;;;;;10.88;82.63;101621.69;5013179;28;20037;-68
2021/10/22 10:33:28;;;;;;;13.07;2.15;;;;;;;11.07;83.02;101626.63;5013275;28;20022;-68
2021/10/22 10:35:54;;;;;;;15.45;2.17;;;;;;;11.10;81.28;101624.06;5012877;28;20073;-69
2021/10/22 10:38:43;;;;;;;16.58;2.33;;;;;;;11.13;81.07;101621.50;5013078;28;20048;-68
2021/10/22 10:41:19;;;;;;;12.77;2.05;;;;;;;11.19;79.56;101627.81;5012992;28;20022;-69
2021/10/22 10:43:45;;;;;;;23.85;1.95;;;;;;;11.29;79.02;101646.53;5012951;28;20042;-69
2021/10/22 10:46:31;;;;;;;12.70;2.30;;;;;;;11.36;78.39;101623.00;5014974;28;20029;-69
2021/10/22 10:48:56;;;;;;;9.18;1.95;;;;;;;11.35;78.82;101627.34;5016863;28;20107;-69
2021/10/22 10:51:35;;;;;;;11.38;1.67;;;;;;;11.37;78.81;101628.28;5016852;28;20115;-69
2021/10/22 10:54:03;;;;;;;28.88;3.55;;;;;;;11.45;78.79;101633.78;5030353;28;20374;-71
2021/10/22 10:56:38;;;;;;;13.13;1.80;;;;;;;11.50;78.17;101631.25;5036482;28;20033;-70
2021/10/22 10:59:03;;;;;;;13.27;2.13;;;;;;;11.58;77.98;101632.31;5036622;28;20095;-69
2021/10/22 11:01:34;;;;;;;11.25;2.40;;;;;;;11.65;76.46;101628.97;5036519;28;20491;-70
2021/10/22 11:04:00;;;;;;;11.82;2.00;;;;;;;11.68;75.90;101644.91;5035328;28;20029;-69
2021/10/22 11:06:51;;;;;;;11.45;1.55;;;;;;;11.64;75.81;101638.66;5036311;28;20167;-70
2021/10/22 11:09:26;;;;;;;19.33;1.98;;;;;;;11.61;76.11;101649.13;5036504;28;20507;-71
2021/10/22 11:11:59;;;;;;;11.02;1.73;;;;;;;11.55;76.31;101654.22;5035179;28;20504;-68
2021/10/22 11:14:25;;;;;;;14.48;2.55;;;;;;;11.53;76.35;101660.31;5036035;28;20038;-68
2021/10/22 11:16:55;;;;;;;15.38;2.25;;;;;;;11.57;77.57;101665.72;5036139;28;20029;-70
2021/10/22 11:19:42;;;;;;;11.70;1.83;;;;;;;12.16;76.25;101668.91;5036100;28;20037;-69
2021/10/22 11:22:13;;;;;;;14.20;2.15;;;;;;;12.20;74.82;101662.84;5035955;28;20548;-69
2021/10/22 11:24:40;;;;;;;14.90;2.92;;;;;;;12.07;75.39;101669.56;5035940;28;20436;-70
2021/10/22 11:27:16;;;;;;;12.93;1.73;;;;;;;11.86;74.34;101669.94;5035954;28;20438;-70
2021/10/22 11:29:52;;;;;;;12.57;1.65;;;;;;;11.75;74.82;101673.19;5036112;28;20046;-69
2021/10/22 11:32:19;;;;;;;12.65;2.50;;;;;;;11.69;75.42;101680.94;5036179;28;20128;-69